Terminal Aerodrome Forecast
Issued by NWS

Current Version | Previous Version | Text Only | Print | Product List | Glossary Off
Versions: 1 2 3 4 5 6 7 8 9 10 11 12 13 14 15 16 17 18 19 20 21 22 23 24 25 26 27 28 29 30 31 32 33 34

000
FTUS41 KPBZ 272339
TAFMGW
TAF
KMGW 272339Z 2800/2824 00000KT P6SM SCT200
     FM280800 00000KT 3SM BR SCT200
     FM281300 00000KT P6SM BKN050
     FM281600 22003KT P6SM VCTS BKN040CB
     FM282100 27003KT P6SM -SHRA VCTS OVC030CB=

USA.gov is the U.S. government's official web portal to all federal, state and local government web resources and services.